Philadelphia, Pennsylvania
Traffic Map
Current Weather Conditions
Philadelphia, Pennsylvania
Overcast
Overcast
46°
Feels Like: 41°
Wind Chill: 41° Ceiling: 2100
Heat Index: 46° Visibility: 10mi
Dew Point: 38° Wind: 9mph
Humidity: 73% Direction: 340° (NNW)
Pressure: 30in Gusts: 0mph
Raw Report DataKPHL 071754Z 34008KT 10SM OVC021 08/03 A3000 RMK AO2 SLP159 60000 T00780033 10078 20044 55008
Traffic Incident Summary
Active as of:
Severity:
Category:
InformationThere was an issue retrieving the traffic information for this location. Please try a different location or try again shortly.
Advertisements
Track Severe Weather on mobile